METAR Data
IDs: Format: Raw Decoded Include TAF

Data at: 1225 UTC 20 Oct 2021

ETNN 201120Z 21013G26KT 9999 BKN030 18/12 Q1007 BLU BLU